createdAt,value
2019-04-26T00:07:49.843Z,79.86
2019-04-26T00:14:04.382Z,79.13
2019-04-26T00:16:45.652Z,79.28
2019-04-26T00:19:25.475Z,79.02
2019-04-26T00:22:05.543Z,79.12
2019-04-26T00:24:45.756Z,78.58
2019-04-26T00:27:12.687Z,78.52
2019-04-26T00:30:06.396Z,79.71
2019-04-26T00:35:57.065Z,79.17
2019-04-26T00:41:39.185Z,78.72
2019-04-26T00:44:05.175Z,78.85
2019-04-26T00:49:52.306Z,79.29
2019-04-26T01:08:40.395Z,78.83
2019-04-26T01:11:26.324Z,78.80
2019-04-26T01:14:06.005Z,78.50
2019-04-26T01:19:57.873Z,78.45
2019-04-26T01:22:37.113Z,78.74
2019-04-26T01:25:17.516Z,78.97
2019-04-26T01:31:08.548Z,79.02
2019-04-26T01:33:47.727Z,78.59
2019-04-26T01:36:27.041Z,78.31
2019-04-26T01:39:08.300Z,78.95
2019-04-26T01:41:49.105Z,78.56
2019-04-26T01:44:38.784Z,78.10
2019-04-26T01:47:18.525Z,78.29
2019-04-26T01:50:17.450Z,78.09
2019-04-26T01:53:25.261Z,77.81
2019-04-26T01:56:11.944Z,77.44
2019-04-26T01:58:50.974Z,76.94
2019-04-26T02:05:03.247Z,76.89
2019-04-26T02:07:42.420Z,76.66
2019-04-26T02:10:23.373Z,76.89
2019-04-26T02:16:21.592Z,77.27
2019-04-26T02:25:17.238Z,76.14
2019-04-26T02:27:43.257Z,76.39
2019-04-26T02:33:41.747Z,75.98
2019-04-26T02:36:07.947Z,76.20
2019-04-26T02:38:54.162Z,75.79
2019-04-26T02:45:24.906Z,75.75
2019-04-26T02:51:46.169Z,76.36
2019-04-26T02:54:53.908Z,76.52
2019-04-26T02:58:01.568Z,76.06
2019-04-26T03:00:28.124Z,75.91
2019-04-26T03:07:01.882Z,76.00
2019-04-26T03:18:57.807Z,75.78
2019-04-26T03:21:45.856Z,75.62
2019-04-26T03:27:52.281Z,75.19
2019-04-26T03:31:00.097Z,75.23
2019-04-26T03:34:06.148Z,75.66
2019-04-26T03:37:33.773Z,75.58
2019-04-26T03:53:41.588Z,74.17
2019-04-26T04:03:43.487Z,73.19
2019-04-26T04:06:30.536Z,72.73
2019-04-26T04:09:10.103Z,72.36
2019-04-26T04:11:50.259Z,72.77
2019-04-26T04:14:56.259Z,71.27
2019-04-26T04:17:47.823Z,71.61
2019-04-26T04:24:24.980Z,70.54
2019-04-26T04:30:06.204Z,69.82
2019-04-26T04:32:46.278Z,69.29
2019-04-26T04:35:26.361Z,69.36
2019-04-26T04:41:16.657Z,69.28
2019-04-26T04:44:24.301Z,69.18
2019-04-26T04:47:22.362Z,68.12
2019-04-26T04:49:52.713Z,68.03
2019-04-26T04:56:33.598Z,67.23
2019-04-26T04:59:24.420Z,66.96
2019-04-26T05:02:08.076Z,66.13
2019-04-26T05:05:07.773Z,65.66
2019-04-26T05:07:47.312Z,64.88
2019-04-26T05:10:28.038Z,64.07
2019-04-26T05:13:27.151Z,63.97
2019-04-26T05:22:23.119Z,62.23
2019-04-26T05:28:46.203Z,62.31
2019-04-26T05:34:48.950Z,62.60
2019-04-26T05:41:26.040Z,63.81
2019-04-26T05:44:33.717Z,64.96
2019-04-26T05:47:33.485Z,65.29
2019-04-26T05:50:41.165Z,65.68
2019-04-26T05:54:06.842Z,66.21
2019-04-26T06:00:33.606Z,67.29
2019-04-26T06:14:22.945Z,66.70
2019-04-26T06:17:21.895Z,67.31
2019-04-26T06:20:05.094Z,67.02
2019-04-26T06:26:04.783Z,65.44
2019-04-26T06:28:44.585Z,64.99
2019-04-26T06:31:43.605Z,63.85
2019-04-26T06:34:51.275Z,63.06
2019-04-26T06:37:59.769Z,62.01
2019-04-26T06:41:07.086Z,62.61
2019-04-26T06:46:47.620Z,62.58
2019-04-26T06:49:46.859Z,61.78
2019-04-26T06:52:26.148Z,61.58
2019-04-26T06:58:33.230Z,62.04
2019-04-26T07:01:22.879Z,63.42
2019-04-26T07:04:30.551Z,62.94
2019-04-26T07:07:18.300Z,62.65
2019-04-26T07:10:26.021Z,61.98
2019-04-26T07:13:51.711Z,61.90
2019-04-26T07:16:30.805Z,61.07
2019-04-26T07:19:11.146Z,61.25
2019-04-26T07:22:10.979Z,60.83
2019-04-26T07:24:52.195Z,60.51
2019-04-26T07:27:31.535Z,60.20
2019-04-26T07:30:10.793Z,59.81
2019-04-26T07:32:54.645Z,58.30
2019-04-26T07:39:10.565Z,57.41
2019-04-26T07:45:46.913Z,55.69
2019-04-26T07:52:08.542Z,54.41
2019-04-26T07:57:49.264Z,54.02
2019-04-26T08:00:44.581Z,54.56
2019-04-26T08:03:54.535Z,55.68
2019-04-26T08:06:34.461Z,55.00
2019-04-26T08:09:27.036Z,53.97
2019-04-26T08:16:04.912Z,52.39
2019-04-26T08:18:45.957Z,53.02
2019-04-26T08:21:31.833Z,51.86
2019-04-26T08:24:37.800Z,51.00
2019-04-26T08:43:10.926Z,49.51
2019-04-26T08:48:32.351Z,49.13
2019-04-26T08:51:31.729Z,48.35
2019-04-26T08:54:16.221Z,48.73
2019-04-26T08:59:58.735Z,49.06
2019-04-26T09:02:57.781Z,48.27
2019-04-26T09:12:28.663Z,48.31
2019-04-26T09:18:54.298Z,47.16
2019-04-26T09:21:47.495Z,45.71
2019-04-26T09:24:39.500Z,45.53
2019-04-26T09:27:22.474Z,44.59
2019-04-26T09:36:07.988Z,43.28
2019-04-26T09:38:47.581Z,43.82
2019-04-26T09:41:13.624Z,44.86
2019-04-26T09:50:49.064Z,43.18
2019-04-26T09:56:39.483Z,41.95
2019-04-26T10:02:29.521Z,42.82
2019-04-26T10:05:27.197Z,44.01
2019-04-26T10:08:08.349Z,43.52
2019-04-26T10:10:47.711Z,43.06
2019-04-26T10:13:27.708Z,42.52
2019-04-26T10:31:59.637Z,42.35
2019-04-26T10:34:47.503Z,41.77
2019-04-26T10:37:55.475Z,41.70
2019-04-26T10:43:41.674Z,40.87
2019-04-26T10:46:24.535Z,39.57
2019-04-26T10:49:09.728Z,38.96
2019-04-26T10:52:04.402Z,39.98
2019-04-26T10:54:30.429Z,38.71
2019-04-26T11:00:27.678Z,40.97
2019-04-26T11:03:13.751Z,41.72
2019-04-26T11:05:57.081Z,43.76
2019-04-26T11:08:23.067Z,42.85
2019-04-26T11:11:27.560Z,42.82
2019-04-26T11:16:48.089Z,45.65
2019-04-26T11:22:37.517Z,46.33
2019-04-26T11:25:18.356Z,46.47
2019-04-26T11:27:48.481Z,46.16
2019-04-26T11:30:38.610Z,47.16
2019-04-26T11:33:18.144Z,49.47
2019-04-26T11:35:57.183Z,51.33
2019-04-26T11:38:36.229Z,51.56
2019-04-26T11:41:16.180Z,51.74
2019-04-26T11:43:42.273Z,52.90
2019-04-26T11:46:30.077Z,53.54
2019-04-26T11:49:16.319Z,54.70
2019-04-26T11:51:58.577Z,56.12
2019-04-26T11:54:23.339Z,58.47
2019-04-26T11:57:12.124Z,61.03
2019-04-26T12:03:09.381Z,62.03
2019-04-26T12:09:06.482Z,60.23
2019-04-26T12:11:35.209Z,60.82
2019-04-26T12:14:29.506Z,60.09
2019-04-26T12:17:08.315Z,57.68
2019-04-26T12:23:05.615Z,58.28
2019-04-26T12:28:48.882Z,56.76
2019-04-26T12:31:34.732Z,55.12
2019-04-26T12:34:00.762Z,56.39
2019-04-26T12:36:46.660Z,57.01
2019-04-26T12:42:20.141Z,58.05
2019-04-26T12:51:47.349Z,56.24
2019-04-26T12:54:11.692Z,55.63
2019-04-26T12:56:57.627Z,54.96
2019-04-26T13:02:42.229Z,55.79
2019-04-26T13:05:28.115Z,55.40
2019-04-26T13:07:54.162Z,54.51
2019-04-26T13:11:00.046Z,53.98
2019-04-26T13:13:41.710Z,55.05
2019-04-26T13:16:26.598Z,55.53
2019-04-26T13:19:19.779Z,55.31
2019-04-26T13:21:48.299Z,54.50
2019-04-26T13:24:28.107Z,53.90
2019-04-26T13:27:10.492Z,55.41
2019-04-26T13:32:56.797Z,55.36
2019-04-26T13:35:22.831Z,56.48
2019-04-26T13:38:10.023Z,57.56
2019-04-26T13:40:59.809Z,57.48
2019-04-26T13:43:37.782Z,58.19
2019-04-26T13:49:48.228Z,59.10
2019-04-26T13:52:28.002Z,59.85
2019-04-26T13:54:55.399Z,59.98
2019-04-26T13:57:48.330Z,61.33
2019-04-26T14:03:33.332Z,63.58
2019-04-26T14:06:32.473Z,63.51
2019-04-26T14:09:16.030Z,63.68
2019-04-26T14:11:58.128Z,62.82
2019-04-26T14:14:36.813Z,62.72
2019-04-26T14:17:15.934Z,62.70
2019-04-26T14:19:55.765Z,62.36
2019-04-26T14:22:41.010Z,62.19
2019-04-26T14:25:20.713Z,62.91
2019-04-26T14:27:59.881Z,62.98
2019-04-26T14:30:41.813Z,62.70
2019-04-26T14:33:39.699Z,62.50
2019-04-26T14:41:58.407Z,64.06
2019-04-26T14:44:32.840Z,64.36
2019-04-26T14:47:13.850Z,65.16
2019-04-26T14:53:03.629Z,65.07
2019-04-26T14:55:36.925Z,64.72
2019-04-26T14:58:02.930Z,65.03
2019-04-26T15:09:48.472Z,69.28
2019-04-26T15:15:53.915Z,70.08
2019-04-26T15:18:36.967Z,69.86
2019-04-26T15:21:03.916Z,70.98
2019-04-26T15:24:25.847Z,71.22
2019-04-26T15:26:51.615Z,72.40
2019-04-26T15:29:32.300Z,71.74
2019-04-26T15:32:13.063Z,71.50
2019-04-26T15:34:39.224Z,71.32
2019-04-26T15:40:59.533Z,71.47
2019-04-26T15:46:55.267Z,71.56
2019-04-26T15:49:42.829Z,70.33
2019-04-26T15:52:15.952Z,70.15
2019-04-26T15:54:42.507Z,70.63
2019-04-26T15:57:54.991Z,71.51
2019-04-26T16:00:35.612Z,71.35
2019-04-26T16:09:35.292Z,71.96
2019-04-26T16:12:24.558Z,71.65
2019-04-26T16:18:00.086Z,71.84
2019-04-26T16:20:46.292Z,71.84
2019-04-26T16:23:38.125Z,71.88
2019-04-26T16:25:53.357Z,71.88
2019-04-26T16:28:43.041Z,72.21
2019-04-26T16:31:27.294Z,72.82
2019-04-26T16:34:14.204Z,72.82
2019-04-26T16:37:00.380Z,72.75
2019-04-26T16:39:40.171Z,72.69
2019-04-26T16:42:07.504Z,72.99
2019-04-26T16:45:04.098Z,73.22
2019-04-26T16:48:08.955Z,72.96
2019-04-26T16:50:48.336Z,73.29
2019-04-26T16:56:09.349Z,74.49
2019-04-26T16:58:49.244Z,74.21
2019-04-26T17:00:32.162Z,74.02
2019-04-26T17:01:29.323Z,74.26
2019-04-26T17:04:11.361Z,74.35
2019-04-26T17:06:50.113Z,74.61
2019-04-26T17:09:52.293Z,74.49
2019-04-26T17:12:16.137Z,74.36
2019-04-26T17:17:52.600Z,75.00
2019-04-26T17:20:48.142Z,75.28
2019-04-26T17:23:40.011Z,75.50
2019-04-26T17:29:24.387Z,75.65
2019-04-26T17:32:04.569Z,76.35
2019-04-26T17:34:44.282Z,75.54
2019-04-26T17:37:26.327Z,75.56
2019-04-26T17:40:04.812Z,75.74
2019-04-26T17:42:43.902Z,75.90
2019-04-26T17:48:24.472Z,76.00
2019-04-26T17:51:18.358Z,76.39
2019-04-26T17:54:18.483Z,77.07
2019-04-26T17:56:35.375Z,77.00
2019-04-26T18:02:41.535Z,78.16
2019-04-26T18:05:57.153Z,78.15
2019-04-26T18:08:45.439Z,78.80
2019-04-26T18:11:19.451Z,78.71
2019-04-26T18:13:47.291Z,78.83
2019-04-26T18:16:32.920Z,78.23
2019-04-26T18:19:15.705Z,78.19
2019-04-26T18:22:01.643Z,78.45
2019-04-26T18:25:11.182Z,78.22
2019-04-26T18:28:08.760Z,78.29
2019-04-26T18:30:36.117Z,78.88
2019-04-26T18:33:40.355Z,79.22
2019-04-26T18:36:06.404Z,79.29
2019-04-26T18:39:10.812Z,79.06
2019-04-26T18:41:50.039Z,78.71
2019-04-26T18:44:36.833Z,78.47
2019-04-26T18:47:20.552Z,78.77
2019-04-26T18:53:23.140Z,77.83
2019-04-26T18:58:43.551Z,77.23
2019-04-26T19:01:29.443Z,77.04
2019-04-26T19:04:12.766Z,76.80
2019-04-26T19:07:12.090Z,76.55
2019-04-26T19:09:56.573Z,76.46
2019-04-26T19:12:35.783Z,76.10
2019-04-26T19:15:25.492Z,76.13
2019-04-26T19:18:49.526Z,75.97
2019-04-26T19:21:39.457Z,76.11
2019-04-26T19:24:29.384Z,76.23
2019-04-26T19:26:55.375Z,76.26
2019-04-26T19:29:43.252Z,75.93
2019-04-26T19:32:15.832Z,75.89
2019-04-26T19:35:07.598Z,76.15
2019-04-26T19:41:26.875Z,76.79
2019-04-26T19:47:28.133Z,76.72
2019-04-26T19:56:17.483Z,77.03
2019-04-26T19:59:34.565Z,76.95
2019-04-26T20:02:20.958Z,77.40
2019-04-26T20:04:46.980Z,77.39
2019-04-26T20:07:33.366Z,76.71
2019-04-26T20:10:13.194Z,76.87
2019-04-26T20:12:39.160Z,77.32
2019-04-26T20:15:28.643Z,77.78
2019-04-26T20:18:03.729Z,78.58
2019-04-26T20:20:54.991Z,78.43
2019-04-26T20:23:38.303Z,78.21
2019-04-26T20:26:15.578Z,78.64
2019-04-26T20:28:54.520Z,78.38
2019-04-26T20:31:44.920Z,78.78
2019-04-26T20:34:34.884Z,78.31
2019-04-26T20:37:22.871Z,78.47
2019-04-26T20:40:22.387Z,78.48
2019-04-26T20:43:02.105Z,78.55
2019-04-26T20:45:38.805Z,78.88
2019-04-26T20:51:12.035Z,78.58
2019-04-26T20:53:48.963Z,78.46
2019-04-26T20:56:28.880Z,78.03
2019-04-26T20:59:36.580Z,77.65
2019-04-26T21:05:46.359Z,75.75
2019-04-26T21:08:35.461Z,75.65
2019-04-26T21:14:44.540Z,75.41
2019-04-26T21:20:46.330Z,74.91
2019-04-26T21:23:13.280Z,74.75
2019-04-26T21:26:26.529Z,74.65
2019-04-26T21:32:21.912Z,75.46
2019-04-26T21:37:49.475Z,74.68
2019-04-26T21:40:35.629Z,75.12
2019-04-26T21:43:14.735Z,75.36
2019-04-26T21:45:40.860Z,75.27
2019-04-26T21:48:26.707Z,75.21
2019-04-26T21:51:08.425Z,74.65
2019-04-26T21:57:09.481Z,74.63
2019-04-26T21:59:49.569Z,74.62
2019-04-26T22:02:57.465Z,74.34
2019-04-26T22:05:49.430Z,74.04
2019-04-26T22:11:13.909Z,74.45
2019-04-26T22:14:03.067Z,74.74
2019-04-26T22:16:50.031Z,74.62
2019-04-26T22:19:32.521Z,74.97
2019-04-26T22:22:15.398Z,74.43
2019-04-26T22:27:39.711Z,74.73
2019-04-26T22:30:29.629Z,74.66
2019-04-26T22:33:09.416Z,74.92
2019-04-26T22:38:40.324Z,75.23
2019-04-26T22:45:28.031Z,76.10
2019-04-26T22:51:17.326Z,75.47
2019-04-26T22:54:06.181Z,75.52
2019-04-26T23:00:00.012Z,75.66
2019-04-26T23:02:39.177Z,75.60
2019-04-26T23:05:18.344Z,75.65
2019-04-26T23:07:44.380Z,75.74
2019-04-26T23:17:27.107Z,76.55
2019-04-26T23:22:48.344Z,77.47
2019-04-26T23:25:27.784Z,77.47
2019-04-26T23:28:07.767Z,77.38
2019-04-26T23:31:15.421Z,77.09
2019-04-26T23:34:02.937Z,78.00
2019-04-26T23:40:20.654Z,78.67
2019-04-26T23:43:22.524Z,80.09
2019-04-26T23:46:00.713Z,80.48
2019-04-26T23:48:42.719Z,80.09
2019-04-26T23:51:21.016Z,80.58
2019-04-26T23:53:50.535Z,81.18
2019-04-26T23:56:44.646Z,81.24
2019-04-26T23:59:24.821Z,81.66
